Terminal Aerodrome Forecast
Issued by NWS

Home | Current Version | Previous Version | Text Only | Print | Product List | Glossary On
Versions: 1 2 3 4 5 6 7 8 9 10 11 12 13 14 15 16 17 18 19 20 21 22 23 24 25 26 27 28 29 30 31 32 33 34 35 36 37 38 39 40 41 42 43 44 45 46 47 48 49 50
000
FTUS43 KLOT 191453 AAA
TAFMDW
TAF AMD
KMDW 191453Z 1915/2018 06007KT P6SM OVC100
     FM191700 04011KT P6SM VCSH SCT015 OVC040
     FM192000 03012KT 5SM -SHRA BR SCT008 OVC025
     FM200000 03011KT 4SM -SHRA BR SCT005 OVC010
     FM200600 01011KT 4SM -SHRA BR OVC010
     FM201200 01010KT 6SM BR OVC010=

USA.gov is the U.S. government's official web portal to all federal, state and local government web resources and services.